Jack northrop Field Hawthorne Municipal Airport Hawthorne US
ICAO: KHHR
IATA: HHR
Category: Medium
Scheduled Services: No

Elevation: 66 ft
TransAlt. 18000 ft.

Airport Communications:
SOCAL APP:124.3
ATIS:118.4
CTAF:121.1
SOCAL DEP:124.3
GND:125.1
HAWTHORNE RDO:122.2
TWR:121.1

KHHR Zoom In..

Runways:

(A) RW 07 length 4956 ft width 100 ft
LOC 109.10 / hdg 73

(B) RW 25 length 4956 ft width 100 ft
LOC 109.10 / hdg 253

Location; KHHR
Day. 03 / Time. 09.53 Zulu
* Altimeter: 30.14
* Temperature: 10° c. 50°f.
* Wind from: 000° Speed 00 kn.
Dewpoint: 04° c.
Visibility: 9 Statute Miles.
Clouds: Clear (automated report).

KHHR 030953Z AUTO 00000KT 9SM CLR 10/04 A3014 RMK AO2 SLP206 T01000039

Going to: --> -->


Wind - Calm.

 
 
jpsmedia worldairports.se 2020   terms of use